Terminal Aerodrome Forecast
Issued by NWS Jacksonville, FL

Home | Current Version | Previous Version | Text Only | Print | Product List | Glossary On
Versions: 1 2 3 4 5 6 7 8 9 10 11 12 13 14 15 16 17 18 19 20 21 22 23 24 25 26 27 28
000
FTUS42 KJAX 181800 AAA
TAFGNV
TAF AMD
KGNV 181843Z 1819/1918 15010G18KT 6SM SHRA BKN020
     FM182300 18012G20KT 3SM SHRA BR OVC010
     FM190400 20010KT 3SM BR VCSH OVC008=

USA.gov is the U.S. government's official web portal to all federal, state and local government web resources and services.